DLH5AU EDDM-EGKK
Flight info
| Callsign | DLH5AU |
|---|---|
| Flight time | N/A |
| Altitude | 34000 |
| Route | OLASO2E/08R OLASO Z714 PELOG UM164 LUPEN/N0430F330 DCT POGOL DCT LUVAL DCT ROTSI/N0428F340 DCT KOTUN DCT NINAL DCT KESAX DCT KUNAV |
| Aircraft | A320/M-SDE3FGHIRWY/LB1 |
Departure
| Time | 2026-05-01 15:13 |
|---|---|
| Airport | Munich Airport (EDDM) |
Arrival
| Time | N/A |
|---|---|
| Airport | London Gatwick Airport (EGKK) |
| Time | Latitude | Longitude | Altitude | Speed | Heading |
|---|---|---|---|---|---|
| 2026-05-01 14:37 | 48.35380 | 11.78315 | 1462 ft | 0 kts | 79° |
| 2026-05-01 14:59 | 48.35380 | 11.78313 | 1469 ft | 2 kts | 79° |
| 2026-05-01 14:59 | 48.35376 | 11.78285 | 1476 ft | 3 kts | 79° |
| 2026-05-01 15:00 | 48.35369 | 11.78230 | 1460 ft | 3 kts | 79° |
| 2026-05-01 15:00 | 48.35366 | 11.78203 | 1460 ft | 3 kts | 79° |
| 2026-05-01 15:00 | 48.35363 | 11.78177 | 1458 ft | 3 kts | 59° |
| 2026-05-01 15:01 | 48.35349 | 11.78162 | 1458 ft | 3 kts | 16° |
| 2026-05-01 15:01 | 48.35332 | 11.78159 | 1462 ft | 3 kts | 352° |
| 2026-05-01 15:01 | 48.35315 | 11.78163 | 1465 ft | 3 kts | 352° |
| 2026-05-01 15:01 | 48.35311 | 11.78164 | 1464 ft | 0 kts | 351° |
| 2026-05-01 15:05 | 48.35333 | 11.78157 | 1461 ft | 7 kts | 341° |
| 2026-05-01 15:05 | 48.35353 | 11.78080 | 1469 ft | 12 kts | 269° |
| 2026-05-01 15:05 | 48.35340 | 11.77917 | 1467 ft | 20 kts | 263° |
| 2026-05-01 15:06 | 48.35270 | 11.77791 | 1459 ft | 17 kts | 172° |
| 2026-05-01 15:06 | 48.35155 | 11.77814 | 1465 ft | 16 kts | 173° |
| 2026-05-01 15:06 | 48.35044 | 11.77832 | 1465 ft | 16 kts | 174° |
| 2026-05-01 15:06 | 48.34938 | 11.77849 | 1465 ft | 15 kts | 173° |
| 2026-05-01 15:07 | 48.34838 | 11.77867 | 1461 ft | 15 kts | 173° |
| 2026-05-01 15:07 | 48.34739 | 11.77886 | 1466 ft | 14 kts | 173° |
| 2026-05-01 15:07 | 48.34655 | 11.77816 | 1467 ft | 17 kts | 265° |
| 2026-05-01 15:07 | 48.34638 | 11.77590 | 1465 ft | 27 kts | 263° |
| 2026-05-01 15:08 | 48.34614 | 11.77264 | 1467 ft | 33 kts | 263° |
| 2026-05-01 15:08 | 48.34588 | 11.76932 | 1469 ft | 31 kts | 263° |
| 2026-05-01 15:08 | 48.34564 | 11.76612 | 1461 ft | 30 kts | 263° |
| 2026-05-01 15:08 | 48.34540 | 11.76302 | 1469 ft | 29 kts | 263° |
| 2026-05-01 15:09 | 48.34517 | 11.75994 | 1469 ft | 30 kts | 263° |
| 2026-05-01 15:09 | 48.34491 | 11.75683 | 1469 ft | 29 kts | 263° |
| 2026-05-01 15:09 | 48.34469 | 11.75383 | 1469 ft | 28 kts | 263° |
| 2026-05-01 15:09 | 48.34405 | 11.75214 | 1467 ft | 18 kts | 188° |
| 2026-05-01 15:10 | 48.34283 | 11.75229 | 1465 ft | 17 kts | 172° |
| 2026-05-01 15:10 | 48.34191 | 11.75247 | 1470 ft | 4 kts | 172° |
| 2026-05-01 15:10 | 48.34118 | 11.75263 | 1472 ft | 13 kts | 167° |
| 2026-05-01 15:11 | 48.34086 | 11.75365 | 1477 ft | 13 kts | 79° |
| 2026-05-01 15:11 | 48.34091 | 11.75425 | 1471 ft | 0 kts | 84° |
| 2026-05-01 15:12 | 48.34124 | 11.75853 | 1468 ft | 77 kts | 83° |
| 2026-05-01 15:12 | 48.34215 | 11.77042 | 1469 ft | 150 kts | 84° |
| 2026-05-01 15:13 | 48.34510 | 11.81539 | 3335 ft | 168 kts | 84° |
| 2026-05-01 15:14 | 48.34812 | 11.85715 | 4997 ft | 182 kts | 84° |
| 2026-05-01 15:14 | 48.34976 | 11.87688 | 5349 ft | 203 kts | 84° |
| 2026-05-01 15:14 | 48.35346 | 11.92335 | 6442 ft | 236 kts | 87° |
| 2026-05-01 15:15 | 48.34675 | 11.96293 | 7778 ft | 242 kts | 126° |
| 2026-05-01 15:15 | 48.31625 | 12.00272 | 9657 ft | 254 kts | 139° |
| 2026-05-01 15:16 | 48.30155 | 12.01809 | 10392 ft | 262 kts | 149° |
| 2026-05-01 15:18 | 48.13862 | 12.01883 | 15683 ft | 323 kts | 179° |
| 2026-05-01 15:18 | 48.11602 | 12.01624 | 16420 ft | 329 kts | 186° |
| 2026-05-01 15:19 | 48.06186 | 11.95492 | 18485 ft | 346 kts | 248° |
| 2026-05-01 15:19 | 48.04860 | 11.88521 | 19708 ft | 352 kts | 258° |
| 2026-05-01 15:19 | 48.04289 | 11.84948 | 20331 ft | 355 kts | 258° |
| 2026-05-01 15:20 | 48.03113 | 11.77777 | 21536 ft | 361 kts | 258° |
| 2026-05-01 15:20 | 48.02501 | 11.74124 | 22131 ft | 364 kts | 258° |
| 2026-05-01 15:20 | 48.01880 | 11.70442 | 22715 ft | 367 kts | 258° |
| 2026-05-01 15:21 | 48.01327 | 11.66717 | 23277 ft | 368 kts | 264° |
| 2026-05-01 15:21 | 48.01045 | 11.62908 | 23831 ft | 370 kts | 268° |
| 2026-05-01 15:21 | 48.00859 | 11.59068 | 24291 ft | 372 kts | 269° |
| 2026-05-01 15:21 | 48.00687 | 11.55201 | 24751 ft | 374 kts | 269° |
| 2026-05-01 15:22 | 48.00334 | 11.47412 | 25666 ft | 377 kts | 269° |
| 2026-05-01 15:22 | 48.00150 | 11.43488 | 26107 ft | 380 kts | 269° |
| 2026-05-01 15:22 | 47.99967 | 11.39600 | 26512 ft | 382 kts | 269° |
| 2026-05-01 15:23 | 47.99777 | 11.35634 | 26933 ft | 384 kts | 269° |
| 2026-05-01 15:23 | 47.99585 | 11.31648 | 27346 ft | 386 kts | 269° |
| 2026-05-01 15:23 | 47.99390 | 11.27643 | 27739 ft | 388 kts | 269° |
| 2026-05-01 15:23 | 47.99193 | 11.23617 | 28124 ft | 390 kts | 269° |
| 2026-05-01 15:24 | 47.98993 | 11.19564 | 28518 ft | 392 kts | 269° |
| 2026-05-01 15:24 | 47.98791 | 11.15497 | 28897 ft | 394 kts | 268° |
| 2026-05-01 15:24 | 47.98586 | 11.11411 | 29258 ft | 396 kts | 268° |
| 2026-05-01 15:24 | 47.98477 | 11.07294 | 29604 ft | 396 kts | 275° |
| 2026-05-01 15:25 | 47.98786 | 11.03288 | 29943 ft | 394 kts | 285° |
| 2026-05-01 15:25 | 47.99599 | 10.99373 | 30126 ft | 397 kts | 294° |
| 2026-05-01 15:25 | 48.00653 | 10.95530 | 30292 ft | 403 kts | 296° |
| 2026-05-01 15:25 | 48.01761 | 10.91657 | 30436 ft | 409 kts | 296° |
| 2026-05-01 15:26 | 48.02885 | 10.87722 | 30573 ft | 415 kts | 296° |
| 2026-05-01 15:26 | 48.04021 | 10.83723 | 30715 ft | 421 kts | 295° |
| 2026-05-01 15:26 | 48.05165 | 10.79673 | 30841 ft | 427 kts | 295° |
| 2026-05-01 15:26 | 48.06309 | 10.75609 | 30968 ft | 432 kts | 295° |
| 2026-05-01 15:27 | 48.07479 | 10.71438 | 31096 ft | 438 kts | 295° |
| 2026-05-01 15:27 | 48.08663 | 10.67205 | 31225 ft | 443 kts | 295° |
| 2026-05-01 15:27 | 48.09857 | 10.62931 | 31446 ft | 446 kts | 295° |
| 2026-05-01 15:28 | 48.12244 | 10.54351 | 32117 ft | 446 kts | 295° |
| 2026-05-01 15:28 | 48.13433 | 10.50065 | 32484 ft | 445 kts | 295° |
| 2026-05-01 15:28 | 48.14619 | 10.45782 | 32841 ft | 444 kts | 295° |
| 2026-05-01 15:29 | 48.16962 | 10.37304 | 33540 ft | 443 kts | 295° |
| 2026-05-01 15:29 | 48.18136 | 10.33046 | 33860 ft | 442 kts | 295° |
| 2026-05-01 15:29 | 48.20320 | 10.24438 | 34289 ft | 444 kts | 287° |
| 2026-05-01 15:30 | 48.21165 | 10.15292 | 34295 ft | 444 kts | 276° |
| 2026-05-01 15:31 | 48.21943 | 9.87569 | 34279 ft | 445 kts | 275° |
| 2026-05-01 15:32 | 48.22762 | 9.69096 | 34292 ft | 443 kts | 279° |
| 2026-05-01 15:34 | 48.25992 | 9.41935 | 34269 ft | 442 kts | 282° |